Time;durP1;ratioP1;P1;durP2;ratioP2;P2;SDS_P1;SDS_P2;PMS_P1;PMS_P2;Temp;Humidity;BMP_temperature;BMP_pressure;BME280_temperature;BME280_humidity;BME280_pressure;Samples;Min_cycle;Max_cycle;Signal;HPM_P1;HPM_P2
2022/02/19 00:00:52;;;;;;;;;5.00;5.00;;;;;16.62;34.90;97021.75;5949184;29;97982;-65
2022/02/19 00:03:57;;;;;;;;;4.00;4.00;;;;;16.80;34.69;97016.19;5937608;29;97566;-65
2022/02/19 00:07:01;;;;;;;;;4.75;3.50;;;;;16.91;34.42;97005.84;5927122;29;96824;-65
2022/02/19 00:10:04;;;;;;;;;4.20;3.80;;;;;16.89;34.37;96999.91;5946550;29;96547;-66
2022/02/19 00:13:07;;;;;;;;;5.60;5.00;;;;;16.81;34.55;97019.72;5948748;29;97582;-65
2022/02/19 00:16:11;;;;;;;;;3.00;2.00;;;;;16.77;34.67;97026.84;5951019;29;97465;-65
2022/02/19 00:19:16;;;;;;;;;3.00;3.00;;;;;17.01;34.31;97034.75;5947954;29;97702;-66
2022/02/19 00:22:20;;;;;;;;;4.00;3.60;;;;;17.12;34.07;97038.84;5941186;29;98581;-66
2022/02/19 00:25:23;;;;;;;;;3.75;3.00;;;;;17.19;34.05;97061.81;5946702;29;96668;-65
2022/02/19 00:28:27;;;;;;;;;3.00;3.00;;;;;17.01;34.39;97090.00;5946699;29;96482;-66
2022/02/19 00:31:30;;;;;;;;;3.00;3.00;;;;;17.10;34.45;97082.72;5948120;29;97495;-65
2022/02/19 00:34:37;;;;;;;;;4.25;4.00;;;;;17.10;34.79;97088.19;5941256;29;97193;-65
2022/02/19 00:37:41;;;;;;;;;5.00;3.60;;;;;17.26;34.43;97111.19;5942166;29;96868;-65
2022/02/19 00:40:44;;;;;;;;;3.20;3.00;;;;;17.28;34.59;97128.06;5943807;29;97945;-66
2022/02/19 00:43:50;;;;;;;;;4.00;4.00;;;;;17.40;34.63;97134.88;5949274;29;96597;-65
2022/02/19 00:46:53;;;;;;;;;3.00;3.00;;;;;17.35;35.13;97189.47;5947397;29;96967;-65
2022/02/19 00:49:58;;;;;;;;;3.00;2.00;;;;;17.16;37.19;97190.41;5947967;29;97740;-65
2022/02/19 00:53:01;;;;;;;;;3.00;3.00;;;;;16.97;38.74;97207.97;5950586;29;96421;-65
2022/02/19 00:56:09;;;;;;;;;4.00;4.00;;;;;16.98;38.84;97218.56;5960409;29;97150;-65
2022/02/19 00:59:12;;;;;;;;;3.00;3.00;;;;;16.87;38.62;97241.63;5929199;29;96748;-65
2022/02/19 01:02:15;;;;;;;;;2.00;2.00;;;;;16.55;38.02;97214.47;5931290;29;96608;-65
2022/02/19 01:05:41;;;;;;;;;2.60;2.00;;;;;16.50;36.83;97211.84;5930717;29;97507;-65
2022/02/19 01:08:45;;;;;;;;;2.00;2.00;;;;;16.40;37.07;97243.56;5929211;29;97326;-65
2022/02/19 01:11:49;;;;;;;;;1.00;1.00;;;;;16.33;36.27;97210.50;5937853;29;96846;-65
2022/02/19 01:14:54;;;;;;;;;2.00;1.50;;;;;16.22;36.50;97200.94;5953413;29;97475;-64
2022/02/19 01:17:57;;;;;;;;;2.00;2.00;;;;;16.10;37.24;97235.13;5937978;29;96830;-65
2022/02/19 01:21:01;;;;;;;;;4.00;3.00;;;;;15.89;38.70;97245.50;5931796;29;96375;-65
2022/02/19 01:24:06;;;;;;;;;2.00;2.00;;;;;15.68;40.21;97245.03;5930626;29;96522;-64
2022/02/19 01:27:09;;;;;;;;;4.00;4.00;;;;;15.83;40.64;97241.28;5956140;29;96731;-65
2022/02/19 01:30:17;;;;;;;;;5.00;3.67;;;;;15.52;41.58;97278.94;5953187;29;97474;-65
2022/02/19 01:33:23;;;;;;;;;3.50;3.00;;;;;15.53;41.52;97286.78;5967650;29;97063;-65
2022/02/19 01:36:27;;;;;;;;;3.00;2.00;;;;;15.34;41.89;97280.50;5953169;29;97051;-65
2022/02/19 01:39:31;;;;;;;;;3.00;2.00;;;;;15.16;40.29;97263.06;5937880;29;96654;-65
2022/02/19 01:42:39;;;;;;;;;2.00;2.00;;;;;15.17;41.21;97269.28;5945512;29;96759;-65
2022/02/19 01:45:46;;;;;;;;;2.40;2.00;;;;;15.09;41.69;97299.81;5936551;29;96770;-66
2022/02/19 01:48:49;;;;;;;;;2.00;2.00;;;;;15.13;41.68;97292.69;5930517;29;97693;-65
2022/02/19 01:51:59;;;;;;;;;1.00;1.00;;;;;14.95;42.42;97293.44;5930479;29;96498;-66
2022/02/19 01:55:04;;;;;;;;;1.00;1.00;;;;;14.91;42.24;97262.53;5928752;29;96619;-66
2022/02/19 01:58:15;;;;;;;;;2.00;2.00;;;;;14.89;41.99;97249.28;5937527;29;97653;-65
2022/02/19 02:01:53;;;;;;;;;2.00;2.00;;;;;14.77;41.41;97269.75;5947861;29;96739;-65
2022/02/19 02:05:29;;;;;;;;;1.00;1.00;;;;;14.74;41.03;97247.56;5960238;29;97536;-65
2022/02/19 02:08:39;;;;;;;;;2.75;2.00;;;;;14.71;39.80;97269.81;5950710;29;99590;-65
2022/02/19 02:11:43;;;;;;;;;2.60;2.00;;;;;14.61;38.48;97261.00;5953572;29;97456;-65
2022/02/19 02:14:47;;;;;;;;;1.20;1.20;;;;;14.63;37.39;97273.16;5952399;29;97309;-65
2022/02/19 02:17:57;;;;;;;;;2.00;2.00;;;;;14.60;35.98;97275.63;5945480;29;97058;-67
2022/02/19 02:21:00;;;;;;;;;2.00;2.00;;;;;14.60;34.96;97260.19;5947438;29;96441;-66
2022/02/19 02:24:06;;;;;;;;;1.60;1.60;;;;;14.58;34.18;97253.41;5953499;29;96945;-66
2022/02/19 02:27:13;;;;;;;;;1.00;1.00;;;;;14.55;33.40;97272.97;5952290;29;96425;-66
2022/02/19 02:30:18;;;;;;;;;1.50;1.50;;;;;14.50;32.62;97281.97;5967301;29;97029;-65
2022/02/19 02:33:26;;;;;;;;;1.00;1.00;;;;;14.77;32.05;97278.69;5952499;29;96600;-65
2022/02/19 02:36:35;;;;;;;;;1.00;1.00;;;;;14.90;31.60;97288.91;5936747;29;99887;-65
2022/02/19 02:39:40;;;;;;;;;2.00;2.00;;;;;14.84;31.34;97302.78;5952973;29;97559;-65
2022/02/19 02:42:44;;;;;;;;;1.00;1.00;;;;;14.99;31.55;97308.88;5959807;29;97561;-65
2022/02/19 02:45:49;;;;;;;;;1.00;1.00;;;;;15.05;31.94;97304.97;5933825;29;96889;-65
2022/02/19 02:48:57;;;;;;;;;1.00;1.00;;;;;15.13;32.02;97325.25;5944718;29;97494;-65
2022/02/19 02:52:05;;;;;;;;;1.00;1.00;;;;;15.21;32.33;97302.91;5936458;29;96671;-65
2022/02/19 02:55:12;;;;;;;;;1.00;1.00;;;;;15.21;32.54;97319.19;5959520;29;96642;-65
2022/02/19 02:58:15;;;;;;;;;1.00;0.20;;;;;15.25;33.08;97309.38;5929357;29;97633;-65
2022/02/19 03:01:19;;;;;;;;;1.00;1.00;;;;;15.36;33.11;97324.44;5931454;29;97328;-66
2022/02/19 03:04:22;;;;;;;;;0.40;0.40;;;;;15.50;33.62;97332.69;5966244;29;97534;-65
2022/02/19 03:07:25;;;;;;;;;1.00;1.00;;;;;15.30;33.26;97331.03;5951391;29;97578;-65
2022/02/19 03:10:30;;;;;;;;;2.00;2.00;;;;;15.39;33.48;97347.50;5951918;29;96933;-65
2022/02/19 03:13:34;;;;;;;;;1.00;1.00;;;;;15.33;32.35;97357.63;5966425;29;97656;-65
2022/02/19 03:16:37;;;;;;;;;1.00;1.00;;;;;15.34;30.87;97350.28;5951286;29;96456;-65
2022/02/19 03:19:41;;;;;;;;;1.00;1.00;;;;;15.22;29.15;97358.81;5950915;29;96748;-65
2022/02/19 03:22:45;;;;;;;;;0.25;0.25;;;;;15.22;29.38;97345.25;5951404;29;97117;-65
2022/02/19 03:25:52;;;;;;;;;0.00;0.00;;;;;15.06;29.19;97354.63;5951030;29;96523;-65
2022/02/19 03:28:56;;;;;;;;;1.00;1.00;;;;;15.09;29.21;97373.91;5933394;29;98475;-67
2022/02/19 03:31:59;;;;;;;;;1.00;0.00;;;;;15.19;28.56;97383.84;5949460;29;96972;-65
2022/02/19 03:35:06;;;;;;;;;0.00;0.00;;;;;15.06;28.29;97384.50;5948856;29;98741;-65
2022/02/19 03:38:10;;;;;;;;;0.00;0.00;;;;;15.04;28.41;97411.13;5949040;29;97289;-66
2022/02/19 03:41:35;;;;;;;;;0.00;0.00;;;;;14.98;28.22;97415.78;5939670;29;97167;-66
2022/02/19 03:44:39;;;;;;;;;1.00;0.20;;;;;14.97;27.70;97430.44;5934409;29;96959;-65
2022/02/19 03:47:49;;;;;;;;;0.00;0.00;;;;;14.71;27.34;97454.25;5935369;29;98473;-65
2022/02/19 03:50:55;;;;;;;;;1.00;1.00;;;;;14.57;27.59;97433.47;5966364;29;97692;-65
2022/02/19 03:53:58;;;;;;;;;1.00;1.00;;;;;14.48;27.57;97424.34;5950922;29;96462;-65
2022/02/19 03:57:06;;;;;;;;;1.00;0.00;;;;;14.50;27.49;97452.81;5944779;29;96642;-65
2022/02/19 04:00:14;;;;;;;;;1.00;1.00;;;;;14.58;27.50;97445.94;5942543;29;96652;-65
2022/02/19 04:03:24;;;;;;;;;0.00;0.00;;;;;14.69;27.53;97452.94;5928830;29;96719;-65
2022/02/19 04:06:27;;;;;;;;;0.00;0.00;;;;;14.70;27.33;97454.56;5947602;29;96653;-65
2022/02/19 04:09:32;;;;;;;;;1.00;1.00;;;;;14.48;27.20;97451.44;5950543;29;96498;-65
2022/02/19 04:12:37;;;;;;;;;0.00;0.00;;;;;14.57;27.05;97456.00;5965959;29;97618;-65
2022/02/19 04:15:43;;;;;;;;;0.00;0.00;;;;;14.60;27.31;97441.88;5962272;29;97561;-66
2022/02/19 04:18:46;;;;;;;;;0.00;0.00;;;;;14.40;27.39;97442.03;5948066;29;96860;-65
2022/02/19 04:21:52;;;;;;;;;0.00;0.00;;;;;14.37;27.56;97447.19;5923852;29;98568;-65
2022/02/19 04:24:58;;;;;;;;;0.00;0.00;;;;;14.32;27.83;97451.50;5948185;29;97418;-65
2022/02/19 04:28:08;;;;;;;;;0.00;0.00;;;;;14.21;27.57;97476.25;5941941;29;97506;-65
2022/02/19 04:31:13;;;;;;;;;0.00;0.00;;;;;14.23;27.94;97460.50;5926686;29;97021;-66
2022/02/19 04:34:16;;;;;;;;;1.00;0.00;;;;;14.26;27.73;97466.22;5927124;29;97643;-65
2022/02/19 04:37:24;;;;;;;;;0.00;0.00;;;;;14.25;27.06;97472.72;5911021;29;99705;-66
2022/02/19 04:40:28;;;;;;;;;1.60;1.00;;;;;14.42;26.96;97479.69;5938660;29;97539;-65
2022/02/19 04:43:34;;;;;;;;;0.60;0.60;;;;;14.26;26.91;97457.25;5963944;29;97132;-65
2022/02/19 04:46:37;;;;;;;;;0.00;0.00;;;;;14.51;27.17;97480.72;5926495;29;96946;-66
2022/02/19 04:49:41;;;;;;;;;0.00;0.00;;;;;14.51;27.33;97473.41;5945522;29;97083;-65
2022/02/19 04:52:45;;;;;;;;;0.00;0.00;;;;;14.52;26.95;97485.84;5942302;29;96732;-66
2022/02/19 04:55:50;;;;;;;;;1.00;0.00;;;;;14.36;27.00;97499.75;5927112;29;96488;-65
2022/02/19 04:58:58;;;;;;;;;0.00;0.00;;;;;14.45;27.30;97503.53;5927910;29;96810;-65
2022/02/19 05:02:05;;;;;;;;;0.00;0.00;;;;;14.44;27.29;97519.00;5941028;29;97471;-66
2022/02/19 05:05:12;;;;;;;;;1.00;1.00;;;;;14.27;27.39;97521.19;5932734;29;97959;-65
2022/02/19 05:08:16;;;;;;;;;1.00;0.00;;;;;14.08;26.65;97523.72;5947672;29;97061;-66
2022/02/19 05:11:22;;;;;;;;;0.00;0.00;;;;;14.08;26.75;97525.63;5947672;29;96814;-65
2022/02/19 05:14:30;;;;;;;;;0.00;0.00;;;;;13.74;27.09;97520.88;5947432;29;99537;-65
2022/02/19 05:17:45;;;;;;;;;0.00;0.00;;;;;13.80;27.01;97530.59;5964492;29;97399;-65
2022/02/19 05:20:52;;;;;;;;;1.00;1.00;;;;;13.77;27.25;97533.06;5948296;29;97540;-65
2022/02/19 05:23:56;;;;;;;;;0.00;0.00;;;;;13.54;27.45;97518.19;5931689;29;98793;-65
2022/02/19 05:27:05;;;;;;;;;0.00;0.00;;;;;13.51;27.44;97539.59;5949401;29;96740;-65
2022/02/19 05:30:13;;;;;;;;;0.00;0.00;;;;;13.18;27.56;97533.69;5932743;29;98027;-65
2022/02/19 05:33:36;;;;;;;;;0.00;0.00;;;;;13.25;27.89;97541.50;5946251;29;96811;-65
2022/02/19 05:36:40;;;;;;;;;1.75;1.00;;;;;13.32;28.03;97536.66;5948717;29;96499;-66
2022/02/19 05:39:44;;;;;;;;;1.00;1.00;;;;;13.30;27.82;97533.38;5949261;29;98386;-65
2022/02/19 05:42:49;;;;;;;;;0.00;0.00;;;;;13.23;28.29;97544.50;5961183;29;96540;-65
2022/02/19 05:45:59;;;;;;;;;1.00;1.00;;;;;13.33;28.19;97555.34;5917346;29;98644;-65
2022/02/19 05:49:04;;;;;;;;;0.00;0.00;;;;;13.32;28.23;97555.59;5953391;29;98097;-66
2022/02/19 05:52:34;;;;;;;;;1.00;1.00;;;;;13.32;28.42;97564.53;5930177;29;96998;-64
2022/02/19 05:56:00;;;;;;;;;1.50;1.00;;;;;12.91;28.72;97547.44;5943410;29;97008;-64
2022/02/19 05:59:04;;;;;;;;;0.80;0.80;;;;;12.85;28.51;97574.75;5951997;29;96517;-64
2022/02/19 06:02:09;;;;;;;;;1.00;1.00;;;;;12.94;28.72;97565.84;5959162;29;97445;-64
2022/02/19 06:05:12;;;;;;;;;1.00;1.00;;;;;12.90;28.70;97561.25;5951387;29;96731;-65
2022/02/19 06:08:21;;;;;;;;;1.00;1.00;;;;;13.09;28.65;97559.63;5953423;29;96827;-66
2022/02/19 06:11:25;;;;;;;;;1.00;1.00;;;;;13.28;28.57;97563.44;5952574;29;97427;-66
2022/02/19 06:14:46;;;;;;;;;1.00;1.00;;;;;13.30;28.63;97582.91;5953603;29;97410;-66
2022/02/19 06:17:52;;;;;;;;;1.00;1.00;;;;;13.30;28.43;97587.53;5936084;29;97857;-67
2022/02/19 06:20:56;;;;;;;;;2.00;1.00;;;;;13.54;28.58;97588.59;5961431;29;97987;-66
2022/02/19 06:24:09;;;;;;;;;1.00;1.00;;;;;13.81;28.05;97596.44;5950098;29;97496;-67
2022/02/19 06:27:13;;;;;;;;;1.80;1.00;;;;;13.77;27.72;97590.75;5952058;29;96556;-67
2022/02/19 06:30:24;;;;;;;;;1.00;0.20;;;;;14.04;27.17;97611.28;5952494;29;97514;-66
2022/02/19 06:33:33;;;;;;;;;1.00;0.00;;;;;14.06;27.03;97620.75;5953326;29;97318;-65
2022/02/19 06:36:40;;;;;;;;;1.00;0.00;;;;;14.06;27.07;97637.03;5936818;29;98336;-65
2022/02/19 06:39:46;;;;;;;;;0.80;0.80;;;;;14.29;26.71;97622.03;5928494;29;98820;-66
2022/02/19 06:42:50;;;;;;;;;2.00;1.00;;;;;14.69;25.84;97626.53;5942850;29;96721;-66
2022/02/19 06:45:58;;;;;;;;;1.00;1.00;;;;;15.32;25.31;97634.84;5949181;29;96631;-65
2022/02/19 06:49:05;;;;;;;;;0.67;0.67;;;;;15.12;24.99;97644.75;5936934;29;97636;-66
2022/02/19 06:52:13;;;;;;;;;2.00;1.00;;;;;15.46;25.45;97647.50;5938906;29;97014;-67
2022/02/19 06:55:22;;;;;;;;;1.40;1.40;;;;;15.24;24.99;97657.97;5946547;29;97417;-67
2022/02/19 06:58:26;;;;;;;;;1.00;1.00;;;;;14.94;25.39;97653.53;5942986;29;98040;-68
2022/02/19 07:01:35;;;;;;;;;1.00;0.00;;;;;15.20;25.33;97659.63;5950126;29;96841;-67
2022/02/19 07:04:40;;;;;;;;;0.25;0.25;;;;;15.53;24.94;97666.22;5950772;29;97532;-67
2022/02/19 07:08:02;;;;;;;;;1.00;1.00;;;;;15.62;24.76;97661.00;5940377;29;96979;-67
2022/02/19 07:11:06;;;;;;;;;0.20;0.00;;;;;16.65;23.61;97645.03;5947915;29;96711;-66
2022/02/19 07:14:11;;;;;;;;;1.00;1.00;;;;;18.76;21.84;97666.47;5928169;29;97150;-67
2022/02/19 07:17:15;;;;;;;;;0.50;0.50;;;;;19.56;20.27;97663.06;5928935;29;97421;-67
2022/02/19 07:20:21;;;;;;;;;1.00;1.00;;;;;20.55;19.37;97672.91;5935277;29;96723;-67
2022/02/19 07:23:25;;;;;;;;;2.20;1.00;;;;;21.97;17.98;97674.97;5935442;29;97525;-67
2022/02/19 07:26:29;;;;;;;;;1.00;1.00;;;;;23.08;17.07;97701.28;5934533;29;97252;-67
2022/02/19 07:29:39;;;;;;;;;1.00;1.00;;;;;23.48;16.67;97698.16;5949395;29;97223;-67
2022/02/19 07:32:45;;;;;;;;;0.50;0.50;;;;;24.47;15.60;97721.13;5940636;29;96717;-65
2022/02/19 07:36:03;;;;;;;;;1.00;1.00;;;;;24.67;14.99;97708.41;5924343;29;96719;-65
2022/02/19 07:39:08;;;;;;;;;2.00;1.60;;;;;25.90;14.55;97722.66;5949275;29;96836;-66
2022/02/19 07:42:16;;;;;;;;;1.00;1.00;;;;;25.96;14.02;97731.47;5950827;29;97180;-66
2022/02/19 07:45:38;;;;;;;;;2.00;1.00;;;;;26.81;13.47;97729.13;5950320;29;99613;-67
2022/02/19 08:00:11;;;;;;;;;2.00;1.00;;;;;26.29;12.79;97735.63;5948710;29;96940;-67
2022/02/19 08:03:20;;;;;;;;;1.00;1.00;;;;;26.13;12.81;97778.16;5948639;29;96726;-67
2022/02/19 08:06:29;;;;;;;;;1.00;1.00;;;;;27.41;12.14;97763.06;5946705;29;98161;-66
2022/02/19 08:09:33;;;;;;;;;2.00;1.00;;;;;29.34;11.45;97780.56;5944953;29;96813;-67
2022/02/19 08:12:37;;;;;;;;;0.00;0.00;;;;;30.55;10.17;97787.50;5946239;29;97506;-67
2022/02/19 08:15:41;;;;;;;;;1.00;1.00;;;;;31.22;9.49;97779.09;5942649;29;97855;-67
2022/02/19 08:18:47;;;;;;;;;1.00;1.00;;;;;31.55;9.86;97783.75;5940551;29;96822;-67
2022/02/19 08:21:51;;;;;;;;;1.00;1.00;;;;;31.87;9.49;97797.91;5947479;29;97484;-67
2022/02/19 08:24:55;;;;;;;;;1.00;1.00;;;;;32.21;9.43;97835.59;5948294;29;97883;-66
2022/02/19 08:27:59;;;;;;;;;1.00;1.00;;;;;33.37;9.07;97808.53;5950270;29;96644;-67
2022/02/19 08:31:02;;;;;;;;;1.00;1.00;;;;;33.60;8.79;97806.13;5950233;29;96624;-67
2022/02/19 08:34:05;;;;;;;;;1.00;1.00;;;;;33.97;8.79;97827.28;5950738;29;96403;-67
2022/02/19 08:37:09;;;;;;;;;1.00;1.00;;;;;34.07;8.62;97816.06;5961606;29;97544;-67
2022/02/19 08:40:15;;;;;;;;;1.00;1.00;;;;;33.71;9.21;97822.94;5945014;29;96470;-67
2022/02/19 08:43:18;;;;;;;;;1.00;1.00;;;;;32.96;9.56;97849.91;5949036;29;96560;-66
2022/02/19 08:46:21;;;;;;;;;1.00;1.00;;;;;30.35;11.11;97819.41;5949526;29;97387;-67
2022/02/19 08:49:25;;;;;;;;;1.00;1.00;;;;;28.38;11.86;97795.38;5949807;29;96687;-66
2022/02/19 08:52:28;;;;;;;;;2.00;1.67;;;;;28.94;11.65;97814.31;5950074;29;97066;-67
2022/02/19 08:55:33;;;;;;;;;0.20;0.00;;;;;27.12;12.28;97819.69;5949162;29;98082;-67
2022/02/19 08:58:36;;;;;;;;;1.80;1.80;;;;;27.00;12.63;97837.13;5948386;29;97674;-66
2022/02/19 09:01:40;;;;;;;;;1.00;1.00;;;;;27.08;12.09;97838.13;5940636;29;97551;-67
2022/02/19 09:04:43;;;;;;;;;2.00;2.00;;;;;28.08;11.53;97838.63;5928348;29;96959;-67
2022/02/19 09:07:48;;;;;;;;;1.20;1.00;;;;;28.85;10.17;97836.75;5928723;29;97505;-67
2022/02/19 09:10:52;;;;;;;;;2.00;1.60;;;;;29.13;10.26;97870.56;5936052;29;97624;-66
2022/02/19 09:13:56;;;;;;;;;1.00;1.00;;;;;29.89;9.95;97879.09;5933660;29;96464;-66
2022/02/19 09:16:59;;;;;;;;;2.00;1.00;;;;;30.39;9.56;97883.44;5948255;29;97448;-66
2022/02/19 09:20:03;;;;;;;;;1.00;1.00;;;;;29.19;10.08;97871.88;5937436;29;97019;-66
2022/02/19 09:23:06;;;;;;;;;1.00;1.00;;;;;29.65;9.60;97883.06;5950597;29;96677;-66
2022/02/19 09:26:48;;;;;;;;;4.00;2.00;;;;;28.99;10.10;97914.72;6329695;27;96670;-67
2022/02/19 09:29:51;;;;;;;;;2.00;2.00;;;;;28.08;10.74;97897.63;6264848;27;98871;-73
2022/02/19 09:32:55;;;;;;;;;1.00;1.00;;;;;28.25;11.24;97902.78;6294389;27;97475;-68
2022/02/19 09:35:58;;;;;;;;;1.00;0.60;;;;;28.40;10.34;97915.00;6285111;27;97229;-68
2022/02/19 09:39:01;;;;;;;;;0.80;0.80;;;;;27.86;10.67;97912.91;6270581;27;97784;-65
2022/02/19 09:42:07;;;;;;;;;1.00;1.00;;;;;27.35;10.95;97928.59;6277243;27;97369;-65
2022/02/19 09:45:10;;;;;;;;;1.00;0.00;;;;;26.75;11.72;97957.28;6263931;27;99523;-64
2022/02/19 09:48:17;;;;;;;;;2.00;1.00;;;;;26.30;11.56;97927.91;6277433;27;97377;-66
2022/02/19 09:51:20;;;;;;;;;1.00;1.00;;;;;26.29;11.54;97966.94;6272914;27;98383;-68
2022/02/19 09:54:24;;;;;;;;;2.00;1.60;;;;;25.81;11.89;97934.56;6282902;27;96665;-66
2022/02/19 09:57:28;;;;;;;;;0.00;0.00;;;;;25.65;11.93;97992.41;6284727;27;96706;-65
2022/02/19 10:00:38;;;;;;;;;1.00;1.00;;;;;25.56;12.02;97942.00;6280543;27;96843;-65
2022/02/19 10:03:41;;;;;;;;;1.00;1.00;;;;;24.98;12.87;97962.38;6277239;27;97147;-65
2022/02/19 10:06:44;;;;;;;;;1.00;1.00;;;;;25.53;12.45;97984.06;6274214;27;98518;-66
2022/02/19 10:09:50;;;;;;;;;2.00;2.00;;;;;24.44;12.99;97948.50;6285871;27;97553;-64
2022/02/19 10:12:55;;;;;;;;;2.00;1.00;;;;;24.00;13.00;97949.88;6282091;27;97506;-68
2022/02/19 10:16:00;;;;;;;;;1.00;1.00;;;;;23.44;13.57;97970.31;6273811;27;97090;-67
2022/02/19 10:19:03;;;;;;;;;1.00;1.00;;;;;24.35;13.60;97986.31;6282024;27;97535;-70
2022/02/19 10:22:09;;;;;;;;;1.00;1.00;;;;;23.62;13.80;97971.88;6265179;27;97481;-69
2022/02/19 10:25:14;;;;;;;;;1.00;1.00;;;;;22.85;14.62;98002.22;6288761;27;96789;-63
2022/02/19 10:28:19;;;;;;;;;1.00;1.00;;;;;21.50;15.85;97968.19;6268978;27;97428;-63
2022/02/19 10:31:23;;;;;;;;;1.00;1.00;;;;;20.27;15.83;98004.25;6250379;27;97885;-62
2022/02/19 10:34:26;;;;;;;;;1.20;1.20;;;;;19.34;16.52;98057.38;6271096;27;97231;-63
2022/02/19 10:37:30;;;;;;;;;6.60;5.60;;;;;17.81;17.66;98040.59;6242760;27;96728;-63
2022/02/19 10:40:36;;;;;;;;;2.25;2.00;;;;;16.99;18.66;97982.47;6269496;27;97140;-64
2022/02/19 10:43:41;;;;;;;;;1.40;1.00;;;;;17.36;18.55;98033.63;6258215;27;96616;-61
2022/02/19 10:46:44;;;;;;;;;1.00;1.00;;;;;16.93;18.67;98037.25;6252076;27;96801;-64
2022/02/19 10:50:09;;;;;;;;;1.80;1.80;;;;;16.00;19.82;98062.44;6276510;27;97405;-63
2022/02/19 10:53:22;;;;;;;;;1.00;1.00;;;;;15.84;20.29;98041.81;6244903;27;96791;-63
2022/02/19 10:56:26;;;;;;;;;1.00;1.00;;;;;15.73;20.21;98056.53;6269730;27;97086;-63
2022/02/19 10:59:31;;;;;;;;;1.00;1.00;;;;;16.64;19.12;98045.34;6250847;27;97427;-65
2022/02/19 11:02:37;;;;;;;;;3.00;1.00;;;;;17.56;18.64;98062.59;6265750;27;97320;-65
2022/02/19 11:05:41;;;;;;;;;1.00;1.00;;;;;17.48;18.32;98038.72;6269187;27;97498;-65
2022/02/19 11:08:45;;;;;;;;;1.00;1.00;;;;;17.48;18.58;98025.91;6244829;27;96763;-65
2022/02/19 11:11:49;;;;;;;;;2.00;1.00;;;;;17.48;18.49;98052.34;6276359;27;96633;-61
2022/02/19 11:14:55;;;;;;;;;0.00;0.00;;;;;18.06;18.21;98061.31;6266166;27;96650;-64
2022/02/19 11:17:59;;;;;;;;;2.00;2.00;;;;;18.73;17.74;98086.69;6235624;27;97118;-64
2022/02/19 11:21:03;;;;;;;;;2.50;2.00;;;;;19.63;16.78;98087.25;6280983;27;97412;-64
2022/02/19 11:24:08;;;;;;;;;1.60;1.60;;;;;19.06;16.77;98071.22;6254535;27;96925;-65
2022/02/19 11:27:15;;;;;;;;;4.20;2.00;;;;;18.86;17.38;98092.25;6272277;27;96689;-65
2022/02/19 11:30:20;;;;;;;;;2.00;1.60;;;;;18.19;17.62;98102.34;6247498;27;100476;-64
2022/02/19 11:33:25;;;;;;;;;1.00;1.00;;;;;17.63;18.40;98109.47;6246436;27;96726;-65
2022/02/19 11:36:29;;;;;;;;;2.00;2.00;;;;;17.23;18.94;98088.78;6264429;27;97078;-64
2022/02/19 11:39:33;;;;;;;;;1.00;1.00;;;;;16.96;19.24;98100.09;6243722;27;97093;-64
2022/02/19 11:42:56;;;;;;;;;3.00;3.00;;;;;16.63;19.28;98119.91;6239238;27;99507;-64
2022/02/19 11:46:03;;;;;;;;;1.50;1.50;;;;;16.34;19.76;98103.38;6262931;27;96784;-64
2022/02/19 11:49:22;;;;;;;;;3.00;3.00;;;;;16.50;19.81;98118.56;6252758;27;96687;-66
2022/02/19 11:52:25;;;;;;;;;2.00;2.00;;;;;16.51;19.96;98124.84;6255010;27;96506;-64
2022/02/19 11:55:46;;;;;;;;;2.00;2.00;;;;;16.98;19.43;98116.19;6259585;27;97394;-65
2022/02/19 11:58:51;;;;;;;;;2.00;2.00;;;;;17.07;18.90;98120.75;6259611;27;96898;-64
2022/02/19 12:02:18;;;;;;;;;1.00;1.00;;;;;17.54;18.62;98117.41;6269460;27;97520;-64
2022/02/19 12:05:22;;;;;;;;;2.00;2.00;;;;;17.61;18.61;98119.81;6261133;27;97432;-65
2022/02/19 12:08:25;;;;;;;;;1.00;1.00;;;;;16.99;19.06;98128.69;6252945;27;96659;-66
2022/02/19 12:11:29;;;;;;;;;1.00;1.00;;;;;16.92;19.21;98118.09;6263607;27;97056;-65
2022/02/19 12:15:01;;;;;;;;;1.00;1.00;;;;;17.33;18.96;98124.94;6261626;27;97038;-65
2022/02/19 12:18:09;;;;;;;;;3.00;2.40;;;;;18.21;18.20;98125.81;6243653;27;96933;-64
2022/02/19 12:21:30;;;;;;;;;1.60;1.00;;;;;18.05;18.10;98133.31;6246227;27;98364;-64
2022/02/19 12:24:49;;;;;;;;;1.00;1.00;;;;;18.01;18.45;98129.56;6233015;27;98537;-65
2022/02/19 12:28:17;;;;;;;;;1.00;1.00;;;;;18.60;18.10;98142.84;6216369;27;97149;-65
2022/02/19 12:31:24;;;;;;;;;2.00;2.00;;;;;19.30;17.55;98138.31;6259075;27;97498;-65
2022/02/19 12:34:31;;;;;;;;;2.00;2.00;;;;;19.65;16.91;98136.16;6254331;27;97500;-65
2022/02/19 12:37:36;;;;;;;;;1.00;1.00;;;;;19.89;16.60;98129.44;6260221;27;97347;-64
2022/02/19 12:40:40;;;;;;;;;2.00;1.00;;;;;20.18;16.86;98144.84;6263898;27;97379;-65
2022/02/19 12:44:15;;;;;;;;;2.00;2.00;;;;;20.07;16.39;98163.34;6257024;27;96459;-65
2022/02/19 12:47:19;;;;;;;;;2.00;1.60;;;;;19.20;16.87;98162.28;6261137;27;96646;-64
2022/02/19 12:50:23;;;;;;;;;2.60;2.00;;;;;18.89;17.23;98165.41;6248228;27;96790;-65
2022/02/19 12:53:27;;;;;;;;;4.00;2.00;;;;;18.39;17.71;98142.22;6250626;27;97087;-64
2022/02/19 12:56:39;;;;;;;;;2.00;2.00;;;;;18.12;18.12;98172.81;6240831;27;97774;-65
2022/02/19 12:59:45;;;;;;;;;3.00;2.00;;;;;18.10;18.15;98169.56;6263107;27;98063;-65
2022/02/19 13:02:56;;;;;;;;;2.00;2.00;;;;;17.94;18.33;98180.88;6259892;27;97559;-65
2022/02/19 13:06:01;;;;;;;;;1.60;1.60;;;;;17.58;18.78;98169.44;6256618;27;97682;-65
2022/02/19 13:09:08;;;;;;;;;1.00;0.50;;;;;17.42;19.00;98190.53;6261176;27;97051;-65
2022/02/19 13:12:11;;;;;;;;;2.00;2.00;;;;;17.03;19.57;98203.28;6260801;27;96666;-64
2022/02/19 13:15:16;;;;;;;;;1.00;1.00;;;;;16.66;19.95;98187.41;6258717;27;98115;-64
2022/02/19 13:18:19;;;;;;;;;1.60;1.60;;;;;16.46;20.33;98190.97;6267451;27;97182;-65
2022/02/19 13:21:24;;;;;;;;;2.00;2.00;;;;;16.39;20.31;98180.34;6256090;27;96846;-65
2022/02/19 13:24:29;;;;;;;;;1.50;1.50;;;;;16.29;20.80;98190.44;6259510;27;96545;-63
2022/02/19 13:27:32;;;;;;;;;1.00;1.00;;;;;15.84;21.20;98205.72;6260281;27;97445;-64
2022/02/19 13:30:39;;;;;;;;;1.00;1.00;;;;;15.72;21.47;98218.78;6253445;27;99128;-65
2022/02/19 13:33:43;;;;;;;;;3.60;2.00;;;;;15.36;21.95;98214.34;6272261;27;96775;-65
2022/02/19 13:36:48;;;;;;;;;2.00;2.00;;;;;15.34;21.40;98211.09;6254269;27;98509;-64
2022/02/19 13:39:54;;;;;;;;;1.60;1.60;;;;;15.23;21.92;98210.25;6267783;27;96839;-65
2022/02/19 13:42:59;;;;;;;;;1.00;1.00;;;;;15.30;21.54;98215.41;6256509;27;97290;-64
2022/02/19 13:46:15;;;;;;;;;1.80;1.00;;;;;15.17;22.04;98230.31;6264016;27;97516;-64
2022/02/19 13:49:18;;;;;;;;;1.00;1.00;;;;;14.97;22.39;98228.34;6266114;27;97429;-64
2022/02/19 13:52:26;;;;;;;;;3.00;2.00;;;;;15.15;22.32;98244.16;6242503;27;96819;-64
2022/02/19 13:55:31;;;;;;;;;2.20;2.00;;;;;15.00;22.86;98251.44;6256847;27;96859;-63
2022/02/19 13:58:42;;;;;;;;;3.00;3.00;;;;;14.94;22.91;98261.47;6256311;27;97426;-65
2022/02/19 14:01:46;;;;;;;;;3.00;2.80;;;;;14.82;23.10;98282.56;6257611;27;97505;-64
2022/02/19 14:04:57;;;;;;;;;3.00;3.00;;;;;14.94;22.98;98269.59;6256497;27;97967;-65
2022/02/19 14:08:02;;;;;;;;;1.00;1.00;;;;;15.05;22.87;98265.03;6250079;27;97261;-63
2022/02/19 14:11:05;;;;;;;;;1.25;1.00;;;;;14.84;23.13;98271.44;6222902;27;98196;-64
2022/02/19 14:14:09;;;;;;;;;4.00;3.00;;;;;14.89;23.11;98301.31;6260834;27;97195;-62
2022/02/19 14:17:14;;;;;;;;;2.00;2.00;;;;;14.55;25.52;98314.41;6263295;27;97928;-64
2022/02/19 14:20:20;;;;;;;;;2.40;2.40;;;;;14.36;25.42;98288.75;6265317;27;97123;-65
2022/02/19 14:23:28;;;;;;;;;3.00;2.00;;;;;14.29;24.45;98294.41;6234370;27;97892;-62
2022/02/19 14:26:31;;;;;;;;;2.00;2.00;;;;;14.19;24.53;98292.44;6232976;27;99715;-65
2022/02/19 14:29:34;;;;;;;;;3.00;2.00;;;;;14.13;25.38;98309.72;6239330;27;99007;-62
2022/02/19 14:32:38;;;;;;;;;2.00;2.00;;;;;14.39;24.79;98309.97;6239981;27;97436;-62
2022/02/19 14:35:43;;;;;;;;;1.00;1.00;;;;;14.44;24.62;98310.00;6260946;27;97832;-63
2022/02/19 14:38:48;;;;;;;;;3.00;2.00;;;;;14.51;24.00;98314.13;6253809;27;97045;-63
2022/02/19 14:41:51;;;;;;;;;2.80;2.00;;;;;14.44;23.75;98304.56;6260313;27;96639;-65
2022/02/19 14:44:54;;;;;;;;;2.40;2.40;;;;;14.60;23.88;98307.13;6267840;27;97262;-65
2022/02/19 14:47:58;;;;;;;;;2.00;2.00;;;;;14.50;23.69;98320.63;6266278;27;97256;-65
2022/02/19 14:51:01;;;;;;;;;2.67;2.00;;;;;14.72;23.68;98317.78;6282158;27;97192;-64